Garrison, New York
Current Conditions -  °F | °C
As of 1:45 PM on Friday 21 Nov 2014 (Local Time) from KSWF Reporting Station
Scattered Clouds Scattered Clouds  
Wind Chill: -5°   Ceiling: Unl
Heat Index:   Visibility: 20mi
Dew Point: -11°   Wind: 17mph
Humidity: 41%   Direction: 290°WNW
Pressure: 30.29"   Gusts: 29mph
Location:  41.38°N, 73.95°W
Report Text: KSWF 211845Z 29015G25KT 20SM SCT050 01/M11 A3029
Loading
Personal Weather Stations






























Interactive Weather Map New forecast layout! Learn more

10-Day Weather Forecast

Advertisements
Track Severe Weather on mobile